Time;durP1;ratioP1;P1;durP2;ratioP2;P2;SDS_P1;SDS_P2;PMS_P1;PMS_P2;Temp;Humidity;BMP_temperature;BMP_pressure;BME280_temperature;BME280_humidity;BME280_pressure;Samples;Min_cycle;Max_cycle;Signal;HPM_P1;HPM_P2
2021/06/23 00:00:01;;;;;;;20.08;16.70;;;;;;;23.93;100.00;100869.09;4864881;29;20045;-76
2021/06/23 00:02:46;;;;;;;24.92;17.48;;;;;;;24.06;100.00;100864.63;4864250;29;20038;-76
2021/06/23 00:05:32;;;;;;;22.80;18.15;;;;;;;24.24;100.00;100864.16;4864033;29;20036;-76
2021/06/23 00:08:18;;;;;;;22.25;17.98;;;;;;;24.30;100.00;100858.34;4864453;29;20038;-76
2021/06/23 00:11:05;;;;;;;20.92;17.20;;;;;;;24.23;100.00;100857.06;4864180;29;20348;-76
2021/06/23 00:13:51;;;;;;;25.23;17.98;;;;;;;24.10;100.00;100852.72;4852705;29;20037;-76
2021/06/23 00:16:37;;;;;;;20.13;17.50;;;;;;;24.29;100.00;100850.44;4864026;29;20040;-76
2021/06/23 00:19:23;;;;;;;26.30;18.70;;;;;;;24.30;100.00;100846.81;4864551;29;20438;-76
2021/06/23 00:22:09;;;;;;;20.92;15.52;;;;;;;23.68;100.00;100848.53;4864118;29;20040;-76
2021/06/23 00:24:55;;;;;;;23.45;15.82;;;;;;;23.92;100.00;100851.34;4852233;29;20067;-76
2021/06/23 00:27:40;;;;;;;20.70;14.10;;;;;;;24.06;100.00;100849.41;4864644;29;20396;-75
2021/06/23 00:30:26;;;;;;;18.15;13.57;;;;;;;23.91;100.00;100844.25;4864356;29;20104;-75
2021/06/23 00:33:18;;;;;;;17.95;13.35;;;;;;;24.08;100.00;100844.81;4864544;29;20356;-76
2021/06/23 00:36:04;;;;;;;18.50;13.63;;;;;;;23.92;100.00;100849.53;4864226;29;20025;-76
2021/06/23 00:38:50;;;;;;;18.85;14.25;;;;;;;23.85;100.00;100853.56;4864199;29;20093;-76
2021/06/23 00:41:36;;;;;;;18.38;13.57;;;;;;;23.81;100.00;100857.41;4863400;29;20368;-75
2021/06/23 00:44:22;;;;;;;19.88;14.05;;;;;;;23.65;100.00;100861.25;4852136;29;20109;-75
2021/06/23 00:47:09;;;;;;;22.35;14.45;;;;;;;23.95;100.00;100862.66;4862835;29;20022;-75
2021/06/23 00:49:54;;;;;;;18.92;13.93;;;;;;;23.64;100.00;100867.56;4852091;29;20029;-74
2021/06/23 00:52:41;;;;;;;23.08;13.75;;;;;;;23.82;100.00;100868.97;4863368;29;20053;-75
2021/06/23 00:55:27;;;;;;;17.30;14.05;;;;;;;24.10;100.00;100874.97;4850726;29;20045;-75
2021/06/23 00:58:14;;;;;;;20.65;13.60;;;;;;;24.29;100.00;100866.50;4863571;29;20033;-75
2021/06/23 01:00:59;;;;;;;20.20;13.23;;;;;;;24.43;100.00;100864.53;4862643;29;20052;-75
2021/06/23 01:03:45;;;;;;;15.45;13.15;;;;;;;24.38;100.00;100855.97;4863091;29;20486;-75
2021/06/23 01:06:32;;;;;;;17.58;13.55;;;;;;;24.54;100.00;100863.75;4863138;29;20048;-75
2021/06/23 01:09:19;;;;;;;18.38;13.65;;;;;;;24.09;100.00;100865.25;4863372;29;20042;-75
2021/06/23 01:12:15;;;;;;;21.40;13.70;;;;;;;24.11;100.00;100860.63;4863033;29;20043;-75
2021/06/23 01:15:02;;;;;;;25.55;14.27;;;;;;;24.25;100.00;100857.84;4863320;29;20165;-75
2021/06/23 01:17:49;;;;;;;23.48;14.63;;;;;;;24.27;100.00;100863.09;4862451;29;20092;-75
2021/06/23 01:20:41;;;;;;;18.40;14.00;;;;;;;24.30;100.00;100852.16;4863179;29;20345;-75
2021/06/23 01:23:27;;;;;;;22.48;14.10;;;;;;;24.53;100.00;100841.50;4850758;29;20033;-75
2021/06/23 01:26:13;;;;;;;22.27;14.13;;;;;;;24.20;100.00;100845.75;4862582;29;20129;-75
2021/06/23 01:28:58;;;;;;;23.75;13.70;;;;;;;24.35;100.00;100841.97;4849664;29;20041;-75
2021/06/23 01:31:44;;;;;;;18.05;14.60;;;;;;;24.24;100.00;100841.88;4863382;29;20396;-75
2021/06/23 01:34:30;;;;;;;19.08;13.65;;;;;;;24.13;100.00;100849.81;4862695;29;20048;-75
2021/06/23 01:37:16;;;;;;;18.15;13.88;;;;;;;24.21;100.00;100853.66;4863274;29;20029;-76
2021/06/23 01:40:02;;;;;;;19.27;14.05;;;;;;;24.20;100.00;100860.00;4862752;29;20037;-76
2021/06/23 01:42:48;;;;;;;16.60;13.50;;;;;;;24.44;100.00;100849.34;4863589;29;20539;-76
2021/06/23 01:45:34;;;;;;;17.58;13.73;;;;;;;24.40;100.00;100847.84;4862751;29;20433;-76
2021/06/23 01:48:23;;;;;;;19.98;14.80;;;;;;;24.33;100.00;100844.75;4862930;29;20045;-76
2021/06/23 01:51:09;;;;;;;25.67;14.80;;;;;;;24.06;100.00;100845.88;4862438;29;20089;-76
2021/06/23 01:53:55;;;;;;;22.52;14.93;;;;;;;23.78;100.00;100846.91;4862241;29;20064;-76
2021/06/23 01:56:41;;;;;;;20.65;15.13;;;;;;;23.80;100.00;100853.03;4862661;29;20129;-76
2021/06/23 01:59:27;;;;;;;23.73;15.55;;;;;;;24.03;100.00;100846.09;4862215;29;20041;-76
2021/06/23 02:02:30;;;;;;;24.38;15.75;;;;;;;24.18;100.00;100837.81;4863251;29;20072;-76
2021/06/23 02:05:28;;;;;;;22.13;15.73;;;;;;;23.96;100.00;100836.78;4862240;29;20097;-76
2021/06/23 02:08:37;;;;;;;24.00;15.63;;;;;;;24.17;100.00;100835.25;4861940;29;20044;-76
2021/06/23 02:11:33;;;;;;;21.80;15.10;;;;;;;23.96;100.00;100840.31;4849832;29;20033;-76
2021/06/23 02:14:31;;;;;;;19.38;15.50;;;;;;;23.90;100.00;100847.88;4862153;29;20033;-76
2021/06/23 02:17:17;;;;;;;25.42;14.88;;;;;;;23.97;100.00;100841.16;4862475;29;20420;-75
2021/06/23 02:20:05;;;;;;;26.13;15.27;;;;;;;23.83;100.00;100838.56;4862087;29;20040;-75
2021/06/23 02:22:52;;;;;;;20.08;15.88;;;;;;;24.15;100.00;100853.25;4861863;29;20022;-76
2021/06/23 02:25:38;;;;;;;18.85;15.23;;;;;;;24.04;100.00;100837.09;4862933;29;20352;-76
2021/06/23 02:28:24;;;;;;;22.15;16.05;;;;;;;24.29;100.00;100827.19;4862385;29;20118;-76
2021/06/23 02:31:11;;;;;;;23.92;15.65;;;;;;;24.02;100.00;100845.22;4861680;29;20041;-76
2021/06/23 02:33:57;;;;;;;21.48;14.57;;;;;;;24.22;100.00;100822.41;4854240;29;20066;-74
2021/06/23 02:36:44;;;;;;;20.48;14.75;;;;;;;24.27;100.00;100826.44;4874722;29;20021;-74
2021/06/23 02:39:30;;;;;;;20.05;14.82;;;;;;;24.19;100.00;100839.50;4874982;29;20029;-74
2021/06/23 02:42:16;;;;;;;21.65;14.55;;;;;;;24.50;100.00;100838.16;4874861;29;20052;-75
2021/06/23 02:45:04;;;;;;;19.95;14.27;;;;;;;24.45;100.00;100835.84;4873014;29;20044;-76
2021/06/23 02:47:50;;;;;;;20.20;13.93;;;;;;;24.30;100.00;100833.41;4859546;29;20554;-76
2021/06/23 02:50:42;;;;;;;22.98;15.40;;;;;;;24.45;100.00;100841.19;4864139;29;20112;-76
2021/06/23 02:53:29;;;;;;;21.02;15.55;;;;;;;24.30;100.00;100841.44;4861292;29;20133;-77
2021/06/23 02:56:16;;;;;;;23.02;14.88;;;;;;;24.24;100.00;100845.41;4861852;29;20117;-76
2021/06/23 02:59:03;;;;;;;27.08;18.77;;;;;;;24.24;100.00;100848.09;4861329;29;20157;-76
2021/06/23 03:01:49;;;;;;;22.30;16.58;;;;;;;24.17;100.00;100845.94;4849685;29;20101;-75
2021/06/23 03:04:35;;;;;;;20.77;15.88;;;;;;;24.08;100.00;100860.88;4862007;29;20109;-75
2021/06/23 03:07:22;;;;;;;25.27;15.25;;;;;;;24.00;100.00;100860.56;4861601;29;20467;-76
2021/06/23 03:10:10;;;;;;;23.08;16.35;;;;;;;24.20;100.00;100859.13;4862133;29;20029;-75
2021/06/23 03:12:56;;;;;;;21.55;16.17;;;;;;;24.17;100.00;100860.22;4861180;29;20040;-75
2021/06/23 03:15:42;;;;;;;29.40;18.02;;;;;;;24.37;100.00;100861.44;4849773;29;20029;-75
2021/06/23 03:18:29;;;;;;;23.63;18.15;;;;;;;24.35;100.00;100861.56;4862144;29;20459;-75
2021/06/23 03:21:15;;;;;;;20.50;17.17;;;;;;;24.23;100.00;100877.66;4861407;29;20097;-76
2021/06/23 03:24:01;;;;;;;24.75;17.35;;;;;;;24.19;100.00;100878.84;4849100;29;20033;-75
2021/06/23 03:26:46;;;;;;;25.75;17.45;;;;;;;24.08;100.00;100892.13;4865101;29;20029;-75
2021/06/23 03:29:35;;;;;;;19.02;16.25;;;;;;;24.22;100.00;100890.19;4864764;29;20029;-76
2021/06/23 03:32:21;;;;;;;23.83;16.85;;;;;;;24.53;100.00;100886.16;4852811;29;20037;-75
2021/06/23 03:35:07;;;;;;;23.63;16.15;;;;;;;24.40;100.00;100893.38;4865231;29;20097;-76
2021/06/23 03:37:55;;;;;;;22.20;15.20;;;;;;;24.77;100.00;100885.28;4865148;29;20037;-76
2021/06/23 03:40:41;;;;;;;24.63;16.80;;;;;;;24.63;100.00;100887.25;4865278;29;20087;-76
2021/06/23 03:43:27;;;;;;;24.10;16.00;;;;;;;24.52;100.00;100898.72;4864781;29;20150;-76
2021/06/23 03:46:13;;;;;;;23.80;16.60;;;;;;;24.02;100.00;100905.94;4865139;29;20037;-76
2021/06/23 03:48:59;;;;;;;26.15;16.23;;;;;;;24.41;100.00;100900.44;4864845;29;20025;-76
2021/06/23 03:51:45;;;;;;;23.25;16.98;;;;;;;24.52;100.00;100893.38;4852378;29;20056;-76
2021/06/23 03:54:31;;;;;;;23.70;16.40;;;;;;;24.76;100.00;100888.94;4865002;29;20029;-76
2021/06/23 03:57:17;;;;;;;20.85;14.50;;;;;;;24.49;100.00;100893.56;4852361;29;20034;-76
2021/06/23 04:00:04;;;;;;;19.60;14.38;;;;;;;24.23;100.00;100904.44;4852043;29;20039;-76
2021/06/23 04:02:50;;;;;;;24.30;14.15;;;;;;;24.41;100.00;100904.00;4864919;29;20037;-76
2021/06/23 04:05:36;;;;;;;17.83;14.00;;;;;;;24.67;100.00;100902.16;4863965;29;20037;-75
2021/06/23 04:08:21;;;;;;;23.35;15.38;;;;;;;24.69;100.00;100902.88;4864191;29;20407;-75
2021/06/23 04:11:07;;;;;;;22.42;15.52;;;;;;;24.58;100.00;100916.16;4864315;29;20041;-76
2021/06/23 04:13:53;;;;;;;21.30;15.68;;;;;;;24.59;100.00;100912.53;4864517;29;20056;-75
2021/06/23 04:16:39;;;;;;;25.60;14.48;;;;;;;24.71;100.00;100899.13;4851899;29;20036;-76
2021/06/23 04:19:24;;;;;;;25.75;13.88;;;;;;;24.87;100.00;100907.75;4864259;29;20375;-76
2021/06/23 04:22:10;;;;;;;18.50;13.48;;;;;;;25.02;100.00;100911.13;4863981;29;20116;-76
2021/06/23 04:24:56;;;;;;;26.30;13.55;;;;;;;24.65;100.00;100907.63;4864620;29;20025;-76
2021/06/23 04:27:42;;;;;;;18.42;12.68;;;;;;;24.89;100.00;100904.97;4852694;29;20455;-76
2021/06/23 04:30:28;;;;;;;20.77;12.55;;;;;;;25.11;100.00;100913.16;4864613;29;20124;-76
2021/06/23 04:33:14;;;;;;;22.75;12.98;;;;;;;25.00;100.00;100916.59;4864652;29;20486;-75
2021/06/23 04:35:59;;;;;;;18.33;12.20;;;;;;;25.16;100.00;100919.84;4863421;29;20140;-76
2021/06/23 04:38:45;;;;;;;24.35;12.82;;;;;;;25.04;100.00;100925.28;4863334;29;20128;-76
2021/06/23 04:41:31;;;;;;;20.98;12.80;;;;;;;25.34;100.00;100917.66;4850387;29;20116;-76
2021/06/23 04:44:17;;;;;;;18.92;12.35;;;;;;;25.21;100.00;100924.88;4863435;29;20459;-76
2021/06/23 04:47:02;;;;;;;20.83;12.45;;;;;;;25.50;100.00;100920.91;4863669;29;20033;-76
2021/06/23 04:49:49;;;;;;;19.75;11.75;;;;;;;25.49;100.00;100925.44;4863638;29;20112;-76
2021/06/23 04:52:36;;;;;;;20.02;11.65;;;;;;;25.41;100.00;100935.00;4862938;29;20053;-76
2021/06/23 04:55:22;;;;;;;17.80;10.85;;;;;;;25.39;100.00;100932.44;4863862;29;20041;-75
2021/06/23 04:58:07;;;;;;;21.98;11.85;;;;;;;25.22;100.00;100932.81;4850252;29;20109;-76
2021/06/23 05:00:53;;;;;;;16.75;11.32;;;;;;;25.36;100.00;100942.56;4864195;29;20040;-75
2021/06/23 05:03:39;;;;;;;19.30;11.15;;;;;;;25.64;100.00;100937.66;4863221;29;20455;-76
2021/06/23 05:06:25;;;;;;;18.45;11.48;;;;;;;26.13;100.00;100940.16;4863132;29;20046;-75
2021/06/23 05:09:10;;;;;;;16.35;10.82;;;;;;;25.65;100.00;100943.91;4863183;29;20025;-76
2021/06/23 05:11:56;;;;;;;16.48;11.27;;;;;;;26.23;100.00;100943.81;4863155;29;20069;-76
2021/06/23 05:14:42;;;;;;;20.50;11.35;;;;;;;25.81;100.00;100949.81;4863069;29;20033;-76
2021/06/23 05:17:28;;;;;;;17.85;11.80;;;;;;;26.15;100.00;100949.78;4862888;29;20043;-76
2021/06/23 05:20:14;;;;;;;17.60;11.27;;;;;;;26.09;100.00;100952.97;4863266;29;20049;-76
2021/06/23 05:23:01;;;;;;;16.90;12.10;;;;;;;26.11;100.00;100958.19;4862280;29;20041;-76
2021/06/23 05:25:47;;;;;;;17.50;12.30;;;;;;;25.70;100.00;100947.06;4862927;29;20033;-76
2021/06/23 05:28:33;;;;;;;20.17;12.40;;;;;;;26.17;100.00;100941.63;4862421;29;20513;-77
2021/06/23 05:31:19;;;;;;;20.75;11.80;;;;;;;26.15;100.00;100954.28;4849793;29;20033;-76
2021/06/23 05:34:04;;;;;;;23.00;11.50;;;;;;;26.22;100.00;100953.72;4862585;29;20029;-75
2021/06/23 05:36:50;;;;;;;20.58;11.25;;;;;;;26.13;100.00;100950.88;4849179;29;20116;-76
2021/06/23 05:39:37;;;;;;;19.52;11.00;;;;;;;26.43;100.00;100960.09;4862482;29;20022;-76
2021/06/23 05:42:23;;;;;;;16.33;10.15;;;;;;;26.45;100.00;100947.38;4863084;29;20030;-76
2021/06/23 05:45:09;;;;;;;16.45;10.60;;;;;;;26.81;100.00;100949.00;4862550;29;20033;-78
2021/06/23 05:47:55;;;;;;;10.63;9.38;;;;;;;26.86;100.00;100952.16;4849718;29;20093;-75
2021/06/23 05:50:41;;;;;;;16.75;9.45;;;;;;;26.87;100.00;100954.72;4849981;29;20029;-75
2021/06/23 05:53:27;;;;;;;16.60;9.20;;;;;;;26.67;100.00;100962.69;4862955;29;20053;-75
2021/06/23 05:56:14;;;;;;;15.30;9.18;;;;;;;26.96;100.00;100955.78;4862972;29;20032;-76
2021/06/23 05:59:00;;;;;;;11.93;8.70;;;;;;;26.98;100.00;100961.91;4863182;29;20061;-76
2021/06/23 06:01:45;;;;;;;13.65;9.18;;;;;;;27.01;100.00;100970.59;4863007;29;20113;-74
2021/06/23 06:04:31;;;;;;;11.52;8.40;;;;;;;27.29;100.00;100974.59;4863089;29;20029;-76
2021/06/23 06:07:17;;;;;;;16.00;8.98;;;;;;;26.97;100.00;100977.19;4862782;29;20044;-76
2021/06/23 06:10:03;;;;;;;14.15;8.20;;;;;;;27.69;100.00;100972.13;4862752;29;20029;-76
2021/06/23 06:12:49;;;;;;;13.50;9.40;;;;;;;27.78;100.00;100982.13;4863416;29;20459;-76
2021/06/23 06:15:35;;;;;;;13.20;9.25;;;;;;;27.45;100.00;100975.03;4862390;29;20037;-76
2021/06/23 06:18:23;;;;;;;12.70;9.23;;;;;;;28.13;100.00;100986.28;4863285;29;20021;-76
2021/06/23 06:21:09;;;;;;;15.57;9.38;;;;;;;28.00;100.00;100980.19;4850514;29;20485;-77
2021/06/23 06:23:55;;;;;;;16.70;9.70;;;;;;;27.58;100.00;100977.56;4862692;29;20120;-76
2021/06/23 06:26:41;;;;;;;15.30;10.02;;;;;;;27.36;100.00;100973.97;4862699;29;20025;-75
2021/06/23 06:29:27;;;;;;;13.32;9.68;;;;;;;27.68;100.00;100976.66;4861613;29;20043;-75
2021/06/23 06:32:12;;;;;;;13.40;9.55;;;;;;;27.41;100.00;100981.66;4862974;29;20336;-75
2021/06/23 06:34:58;;;;;;;14.68;11.15;;;;;;;28.15;100.00;100989.66;4862305;29;20068;-75
2021/06/23 06:37:44;;;;;;;19.38;12.35;;;;;;;27.98;100.00;100990.25;4849577;29;20033;-76
2021/06/23 06:40:30;;;;;;;15.57;11.52;;;;;;;28.59;100.00;101002.00;4849387;29;20535;-75
2021/06/23 06:43:16;;;;;;;19.45;11.90;;;;;;;28.40;100.00;101005.41;4861854;29;20036;-74
2021/06/23 06:46:02;;;;;;;17.25;11.50;;;;;;;28.29;100.00;101002.78;4862126;29;20411;-76
2021/06/23 06:48:48;;;;;;;15.77;11.02;;;;;;;28.45;100.00;101005.91;4860950;29;20472;-76
2021/06/23 06:51:34;;;;;;;15.38;10.80;;;;;;;28.54;100.00;101010.50;4861948;29;20041;-76
2021/06/23 06:54:20;;;;;;;19.98;10.50;;;;;;;28.41;100.00;101017.06;4848516;29;20033;-77
2021/06/23 06:57:06;;;;;;;15.35;9.50;;;;;;;28.72;100.00;101016.16;4861402;29;20367;-76
2021/06/23 06:59:54;;;;;;;14.43;9.50;;;;;;;28.58;100.00;101016.47;4853995;29;20072;-76
2021/06/23 07:02:40;;;;;;;12.30;9.75;;;;;;;28.46;100.00;101014.84;4853105;29;20034;-76
2021/06/23 07:05:26;;;;;;;15.15;10.00;;;;;;;28.63;100.00;101014.22;4865768;29;20495;-76
2021/06/23 07:08:12;;;;;;;15.90;9.98;;;;;;;28.48;100.00;101011.03;4865838;29;20457;-76
2021/06/23 07:11:01;;;;;;;11.18;10.02;;;;;;;28.42;100.00;101016.97;4853684;29;20124;-76
2021/06/23 07:13:46;;;;;;;18.67;10.02;;;;;;;28.52;100.00;101019.72;4865755;29;20029;-75
2021/06/23 07:26:31;;;;;;;14.73;9.00;;;;;;;29.54;100.00;101010.44;4899682;23;20068;-76
2021/06/23 07:29:17;;;;;;;16.33;9.43;;;;;;;29.96;100.00;101009.19;4866442;29;20029;-76
2021/06/23 07:32:06;;;;;;;12.98;9.10;;;;;;;29.86;100.00;101011.06;4865890;29;20029;-76
2021/06/23 07:37:38;;;;;;;12.43;8.10;;;;;;;29.97;100.00;101002.81;4847853;29;20029;-76
2021/06/23 07:43:34;;;;;;;10.25;7.40;;;;;;;30.38;100.00;101007.91;4837160;29;20196;-76
2021/06/23 07:46:20;;;;;;;12.70;7.47;;;;;;;30.86;100.00;101004.03;4847591;29;20026;-78
2021/06/23 07:49:08;;;;;;;15.93;7.05;;;;;;;29.96;100.00;101009.19;4848180;29;20072;-77
2021/06/23 07:55:00;;;;;;;9.57;6.35;;;;;;;30.66;100.00;101015.09;5024098;23;20053;-76
2021/06/23 08:09:58;;;;;;;10.50;6.53;;;;;;;31.16;100.00;101032.69;4846010;29;20044;-75
2021/06/23 08:12:51;;;;;;;11.32;6.13;;;;;;;31.28;100.00;101026.97;4845967;29;20065;-76
2021/06/23 08:15:40;;;;;;;11.90;6.55;;;;;;;31.49;100.00;101040.22;4847285;29;20344;-75
2021/06/23 08:18:26;;;;;;;8.20;5.85;;;;;;;31.32;100.00;101027.50;4847952;29;20083;-76
2021/06/23 08:21:12;;;;;;;11.63;5.93;;;;;;;31.27;100.00;101036.06;4845451;29;20032;-76
2021/06/23 08:23:58;;;;;;;8.57;5.68;;;;;;;32.14;100.00;101033.59;4846602;29;20086;-75
2021/06/23 08:26:44;;;;;;;12.60;6.00;;;;;;;31.69;100.00;101036.38;4847507;29;20113;-75
2021/06/23 08:29:29;;;;;;;9.43;5.60;;;;;;;31.96;100.00;101043.59;4847585;29;20041;-74
2021/06/23 08:32:15;;;;;;;11.07;5.40;;;;;;;31.70;100.00;101039.94;4846772;29;20475;-76
2021/06/23 08:35:01;;;;;;;8.20;5.07;;;;;;;31.86;100.00;101045.56;4845663;29;20137;-75
2021/06/23 08:37:47;;;;;;;9.80;5.50;;;;;;;32.26;100.00;101052.16;4847534;29;20053;-76
2021/06/23 08:40:34;;;;;;;14.95;5.40;;;;;;;31.66;100.00;101041.25;4846851;29;20452;-76
2021/06/23 08:43:20;;;;;;;15.73;6.38;;;;;;;31.96;100.00;101044.47;4847264;29;20034;-76
2021/06/23 08:46:06;;;;;;;12.70;6.00;;;;;;;32.51;100.00;101053.25;4846660;29;20054;-76
2021/06/23 08:48:54;;;;;;;10.05;5.65;;;;;;;32.38;100.00;101050.94;4846442;29;20471;-77
2021/06/23 08:51:42;;;;;;;9.80;5.40;;;;;;;32.55;100.00;101041.94;4846602;29;20041;-76
2021/06/23 08:54:29;;;;;;;9.15;5.50;;;;;;;32.78;100.00;101047.66;4854477;29;20121;-77
2021/06/23 08:57:17;;;;;;;13.27;5.60;;;;;;;32.82;100.00;101041.78;4845951;29;20113;-78
2021/06/23 09:00:06;;;;;;;13.90;5.38;;;;;;;32.79;100.00;101043.94;4855642;29;20061;-77
2021/06/23 09:02:59;;;;;;;11.15;5.03;;;;;;;32.27;98.23;101042.19;4839647;29;20464;-76
2021/06/23 09:05:47;;;;;;;10.48;4.80;;;;;;;32.91;97.21;101051.66;4846983;29;20384;-77
2021/06/23 09:08:37;;;;;;;12.32;5.20;;;;;;;32.66;95.63;101054.38;4846439;29;20033;-77
2021/06/23 09:11:23;;;;;;;12.20;5.25;;;;;;;32.89;94.58;101055.53;4849227;29;20452;-78
2021/06/23 09:14:11;;;;;;;8.07;4.53;;;;;;;32.73;93.75;101045.44;4846990;29;20034;-77
2021/06/23 09:17:10;;;;;;;9.88;4.97;;;;;;;32.73;92.79;101058.13;4849323;29;20098;-78
2021/06/23 09:19:59;;;;;;;13.07;4.85;;;;;;;32.33;91.28;101057.84;4846554;29;20033;-78
2021/06/23 09:22:45;;;;;;;7.75;4.60;;;;;;;32.76;93.81;101052.38;4845248;29;20030;-76
2021/06/23 09:25:34;;;;;;;11.63;4.93;;;;;;;32.61;95.94;101060.28;4845013;29;20037;-77
2021/06/23 09:28:20;;;;;;;11.30;5.10;;;;;;;32.72;97.33;101061.88;4845681;29;20061;-77
2021/06/23 09:31:06;;;;;;;11.88;5.32;;;;;;;31.77;100.00;101058.16;4845506;29;20458;-77
2021/06/23 09:33:54;;;;;;;13.30;5.70;;;;;;;31.54;100.00;101058.72;4844272;29;20034;-77
2021/06/23 09:36:40;;;;;;;7.68;5.10;;;;;;;31.42;100.00;101056.22;4845226;29;20337;-77
2021/06/23 09:39:28;;;;;;;9.77;5.18;;;;;;;32.06;100.00;101061.47;4845430;29;20037;-77
2021/06/23 09:42:13;;;;;;;10.75;5.10;;;;;;;32.52;98.52;101057.66;4844149;29;20032;-77
2021/06/23 09:45:05;;;;;;;12.43;5.68;;;;;;;32.75;98.82;101056.13;4843918;29;20030;-77
2021/06/23 09:48:01;;;;;;;9.23;5.35;;;;;;;32.88;98.74;101051.13;4845306;29;20044;-78
2021/06/23 09:50:47;;;;;;;9.73;5.18;;;;;;;32.95;96.12;101050.31;4846067;29;20147;-78
2021/06/23 09:53:33;;;;;;;12.38;5.05;;;;;;;32.81;97.23;101052.78;4844646;29;20102;-78
2021/06/23 09:56:47;;;;;;;9.00;4.63;;;;;;;32.35;97.56;101047.72;4845600;29;20041;-78
2021/06/23 09:59:39;;;;;;;14.70;5.72;;;;;;;33.04;97.45;101054.78;4845807;29;20042;-76
2021/06/23 10:02:37;;;;;;;12.35;4.93;;;;;;;32.76;98.69;101045.09;4845884;29;20452;-76
2021/06/23 10:05:24;;;;;;;12.43;4.85;;;;;;;32.59;94.57;101043.31;4844531;29;20049;-76
2021/06/23 10:08:20;;;;;;;12.70;4.28;;;;;;;32.51;91.59;101042.41;4844050;29;20030;-76
2021/06/23 10:11:06;;;;;;;9.70;4.53;;;;;;;33.02;94.68;101054.09;4843987;29;20448;-76
2021/06/23 10:13:52;;;;;;;10.98;4.22;;;;;;;32.70;90.74;101047.63;4845457;29;20030;-76
2021/06/23 10:16:38;;;;;;;14.25;4.68;;;;;;;32.84;89.68;101042.47;4844102;29;20094;-76
2021/06/23 10:19:24;;;;;;;11.73;4.43;;;;;;;33.13;94.00;101042.09;4843997;29;20041;-76
2021/06/23 10:22:10;;;;;;;11.80;4.75;;;;;;;32.61;92.50;101040.41;4845669;29;20170;-77
2021/06/23 10:24:57;;;;;;;8.88;4.95;;;;;;;32.79;96.45;101039.34;4844939;29;20416;-76
2021/06/23 10:27:46;;;;;;;18.10;5.45;;;;;;;33.01;99.93;101038.81;4843082;29;20034;-75
2021/06/23 10:30:31;;;;;;;9.77;4.78;;;;;;;32.42;100.00;101043.34;4846271;29;20034;-75
2021/06/23 10:33:17;;;;;;;12.23;5.00;;;;;;;32.46;99.51;101033.88;4844890;29;20030;-75
2021/06/23 10:36:04;;;;;;;13.20;5.75;;;;;;;32.47;98.24;101038.31;4832423;29;20064;-75
2021/06/23 10:38:51;;;;;;;11.15;5.05;;;;;;;32.17;100.00;101031.41;4832809;29;20349;-75
2021/06/23 10:41:39;;;;;;;12.52;5.32;;;;;;;32.86;99.73;101032.28;4845345;29;20448;-75
2021/06/23 10:44:32;;;;;;;13.00;5.00;;;;;;;32.82;98.96;101038.22;4845555;29;20400;-75
2021/06/23 10:47:28;;;;;;;9.93;5.03;;;;;;;32.54;99.69;101031.22;4843030;29;20038;-75
2021/06/23 10:50:20;;;;;;;17.90;5.68;;;;;;;32.81;99.94;101040.06;4845072;29;20038;-77
2021/06/23 10:53:35;;;;;;;11.02;5.20;;;;;;;33.17;98.94;101029.88;4844340;29;20066;-76
2021/06/23 10:56:41;;;;;;;13.90;4.90;;;;;;;33.01;100.00;101032.53;4845078;29;20062;-76
2021/06/23 10:59:32;;;;;;;10.95;4.88;;;;;;;33.49;99.64;101030.03;4844240;29;20030;-75
2021/06/23 11:02:28;;;;;;;11.50;5.25;;;;;;;32.99;99.39;101031.84;4845679;29;20030;-75
2021/06/23 11:05:18;;;;;;;13.95;5.75;;;;;;;32.91;100.00;101035.38;4843974;29;20079;-76
2021/06/23 11:08:36;;;;;;;11.98;4.93;;;;;;;33.52;100.00;101025.13;4842846;29;20037;-76
2021/06/23 11:11:38;;;;;;;12.23;5.20;;;;;;;32.54;100.00;101028.53;4831688;29;20482;-76
2021/06/23 11:14:26;;;;;;;9.85;5.03;;;;;;;33.01;100.00;101027.97;4843787;29;20178;-76
2021/06/23 11:17:29;;;;;;;13.70;5.35;;;;;;;33.62;97.87;101022.22;4831819;29;20030;-76
2021/06/23 11:20:21;;;;;;;10.75;4.70;;;;;;;32.91;100.00;101012.81;4844771;29;20086;-76
2021/06/23 11:23:07;;;;;;;11.63;5.10;;;;;;;33.22;100.00;101016.69;4844362;29;20097;-75
2021/06/23 11:25:53;;;;;;;12.55;5.05;;;;;;;33.83;100.00;101009.06;4844022;29;20135;-75
2021/06/23 11:28:39;;;;;;;9.05;4.72;;;;;;;34.00;98.80;101018.91;4845948;29;20109;-77
2021/06/23 11:31:43;;;;;;;13.48;4.78;;;;;;;32.96;97.27;101016.75;4831775;29;20046;-76
2021/06/23 11:34:35;;;;;;;13.85;5.15;;;;;;;32.73;98.64;101015.56;4843529;29;20034;-76
2021/06/23 11:37:22;;;;;;;14.65;5.25;;;;;;;33.16;96.92;101007.31;4844385;29;20037;-76
2021/06/23 11:40:14;;;;;;;16.77;5.28;;;;;;;32.58;99.25;101000.88;4844606;29;20030;-76
2021/06/23 11:43:02;;;;;;;19.65;5.40;;;;;;;32.74;100.00;101005.56;4844692;29;20038;-76
2021/06/23 11:45:48;;;;;;;16.65;5.50;;;;;;;32.98;98.91;101001.13;4845153;29;20467;-76
2021/06/23 11:48:36;;;;;;;20.50;5.57;;;;;;;33.12;98.28;101002.38;4846415;29;20041;-76
2021/06/23 11:51:22;;;;;;;19.15;5.50;;;;;;;33.67;95.18;101007.13;4847095;29;20452;-75
2021/06/23 11:54:27;;;;;;;12.95;4.60;;;;;;;33.91;92.95;101003.63;4846745;29;20156;-76
2021/06/23 11:57:14;;;;;;;15.93;5.30;;;;;;;34.22;94.70;101004.63;4846920;29;20538;-76
2021/06/23 11:59:59;;;;;;;15.55;5.47;;;;;;;33.68;96.16;100999.81;4847414;29;20038;-77
2021/06/23 12:02:45;;;;;;;16.65;5.90;;;;;;;33.99;93.99;100998.19;4850041;29;20072;-78
2021/06/23 12:05:32;;;;;;;17.65;5.40;;;;;;;34.60;92.69;101004.75;4846449;29;20037;-77
2021/06/23 12:08:18;;;;;;;22.75;6.30;;;;;;;34.02;95.38;100995.97;4847946;29;20423;-77
2021/06/23 12:11:04;;;;;;;21.00;5.68;;;;;;;33.72;93.33;101003.91;4849352;29;20038;-77
2021/06/23 12:13:50;;;;;;;18.17;5.00;;;;;;;33.57;93.26;101005.56;4834258;29;20037;-77
2021/06/23 12:16:36;;;;;;;20.40;5.30;;;;;;;34.08;93.99;101003.44;4846725;29;20108;-77
2021/06/23 12:19:22;;;;;;;20.05;4.88;;;;;;;33.66;92.92;100999.13;4846045;29;20030;-77
2021/06/23 12:22:09;;;;;;;19.88;5.70;;;;;;;34.23;94.26;101003.63;4847178;29;20423;-78
2021/06/23 12:24:54;;;;;;;19.95;5.10;;;;;;;34.21;92.27;101008.38;4846338;29;20043;-77
2021/06/23 12:27:40;;;;;;;13.25;5.05;;;;;;;34.22;94.08;101005.47;4846991;29;20069;-77
2021/06/23 12:30:28;;;;;;;20.17;5.82;;;;;;;33.03;99.13;101014.22;4847637;29;20109;-77
2021/06/23 12:33:14;;;;;;;18.23;5.65;;;;;;;33.47;99.51;100994.03;4846206;29;20034;-76
2021/06/23 12:36:00;;;;;;;15.23;5.50;;;;;;;33.83;97.93;101003.63;4846830;29;20034;-78
2021/06/23 12:38:46;;;;;;;14.15;5.05;;;;;;;34.20;95.91;101004.78;4847054;29;20030;-77
2021/06/23 12:41:32;;;;;;;21.30;5.53;;;;;;;34.63;95.87;101001.69;4847023;29;20459;-77
2021/06/23 12:44:18;;;;;;;21.67;5.80;;;;;;;34.05;95.87;101001.06;4846683;29;20120;-76
2021/06/23 12:47:04;;;;;;;17.77;5.47;;;;;;;33.79;98.23;100994.06;4847748;29;20090;-76
2021/06/23 12:49:50;;;;;;;17.15;5.78;;;;;;;34.16;97.82;100997.16;4846867;29;20041;-75
2021/06/23 12:52:36;;;;;;;19.73;5.05;;;;;;;33.53;97.82;100988.75;4844260;29;20029;-76
2021/06/23 12:55:22;;;;;;;19.23;5.82;;;;;;;33.77;99.48;100983.34;4844740;29;20030;-76
2021/06/23 12:58:08;;;;;;;29.23;5.85;;;;;;;33.91;98.09;100990.88;4845551;29;20045;-76
2021/06/23 13:00:54;;;;;;;17.85;5.18;;;;;;;33.97;98.21;100997.50;4833543;29;20030;-76
2021/06/23 13:03:39;;;;;;;22.85;5.50;;;;;;;34.10;98.01;100986.94;4844348;29;20030;-76
2021/06/23 13:06:26;;;;;;;23.55;6.55;;;;;;;34.09;98.28;100991.56;4845356;29;20030;-76
2021/06/23 13:09:11;;;;;;;22.33;5.75;;;;;;;34.64;95.03;101000.66;4846622;29;20044;-77